Lady Lauren — WDE7767 — position and weather

sailwx.info

Track history (hours):
 
Tides and Currents Weather Stations Pressure Air Temp Water Temp Dewpoint Dewpoint Depression Visibility Wind Speed Wind Dir Waves Ship Positions

Lady Lauren

Owner: Louisiana Marine Towing LLC, Lafayette, LA. More information available from US FCC via Universal Licensing System and Coast Guard Vessel Documentation Center.

Last reported at 2014-Nov-26 14:25 UTC. Time now 2014-Nov-27 20:52 UTC.
Position N 29°53' W 091°13'.

Length 22 m; draft 2.1 m.

Type: Towing. MMSI: 367397380.

Date/timePositionNaut miles runAvg speedWind from/ knotsBaromVisibWave heightAir tempDewpointWater temp
2014-Nov-26 14:25N 29°53' W 091°13'1 1.0
2014-Nov-26 13:33N 29°52' W 091°13'4 3.7
2014-Nov-26 12:24N 29°49' W 091°10'1 1.1
2014-Nov-26 11:33N 29°48' W 091°10'3 2.7
2014-Nov-26 10:33N 29°45' W 091°11'3 3.4
2014-Nov-26 09:33N 29°42' W 091°13'2 2.0
2014-Nov-26 08:33N 29°40' W 091°13'3 3.3
2014-Nov-26 07:33N 29°39' W 091°17'3 3.3
2014-Nov-26 06:33N 29°38' W 091°21'9 3.2
2014-Nov-26 03:33N 29°42' W 091°31'  
2014-Nov-22 23:33N 29°43' W 091°33'6 4.2
2014-Nov-22 22:13N 29°40' W 091°27'3 4.6
2014-Nov-22 21:33N 29°39' W 091°24'4 3.7
2014-Nov-22 20:33N 29°38' W 091°20'4 4.3
2014-Nov-22 19:33N 29°39' W 091°15'4 4.1
2014-Nov-22 18:33N 29°43' W 091°13'3 2.7
2014-Nov-22 17:33N 29°45' W 091°11'4 4.5
2014-Nov-22 16:33N 29°49' W 091°10'  
2014-Nov-19 19:33N 29°48' W 091°10'4 3.8
2014-Nov-19 18:33N 29°44' W 091°11'3 2.9
2014-Nov-19 17:33N 29°42' W 091°13'4 4.4
2014-Nov-19 16:33N 29°39' W 091°17'5 4.7
2014-Nov-19 15:29N 29°39' W 091°22'4 3.8
2014-Nov-19 14:20N 29°40' W 091°27'3 3.0
2014-Nov-19 13:28N 29°42' W 091°30'0 0.2
2014-Nov-19 12:33N 29°42' W 091°30'2 2.3
2014-Nov-19 11:33N 29°43' W 091°32'  
Track history (hours):
 
Tides and Currents Weather Stations Pressure Air Temp Water Temp Dewpoint Dewpoint Depression Visibility Wind Speed Wind Dir Waves Ship Positions

Lady Lauren

Owner: Louisiana Marine Towing LLC, Lafayette, LA. More information available from US FCC via Universal Licensing System and Coast Guard Vessel Documentation Center.

Last reported at 2014-Nov-26 14:25 UTC. Time now 2014-Nov-27 20:52 UTC.
Position N 29°53' W 091°13'.

Length 22 m; draft 2.1 m.

Type: Towing. MMSI: 367397380.

Date/timePositionNaut miles runAvg speedWind from/ knotsBaromVisibWave heightAir tempDewpointWater temp
2014-Nov-26 14:25N 29°53' W 091°13'1 1.0
2014-Nov-26 13:33N 29°52' W 091°13'4 3.7
2014-Nov-26 12:24N 29°49' W 091°10'1 1.1
2014-Nov-26 11:33N 29°48' W 091°10'3 2.7
2014-Nov-26 10:33N 29°45' W 091°11'3 3.4
2014-Nov-26 09:33N 29°42' W 091°13'2 2.0
2014-Nov-26 08:33N 29°40' W 091°13'3 3.3
2014-Nov-26 07:33N 29°39' W 091°17'3 3.3
2014-Nov-26 06:33N 29°38' W 091°21'9 3.2
2014-Nov-26 03:33N 29°42' W 091°31'  
2014-Nov-22 23:33N 29°43' W 091°33'6 4.2
2014-Nov-22 22:13N 29°40' W 091°27'3 4.6
2014-Nov-22 21:33N 29°39' W 091°24'4 3.7
2014-Nov-22 20:33N 29°38' W 091°20'4 4.3
2014-Nov-22 19:33N 29°39' W 091°15'4 4.1
2014-Nov-22 18:33N 29°43' W 091°13'3 2.7
2014-Nov-22 17:33N 29°45' W 091°11'4 4.5
2014-Nov-22 16:33N 29°49' W 091°10'  
2014-Nov-19 19:33N 29°48' W 091°10'4 3.8
2014-Nov-19 18:33N 29°44' W 091°11'3 2.9
2014-Nov-19 17:33N 29°42' W 091°13'4 4.4
2014-Nov-19 16:33N 29°39' W 091°17'5 4.7
2014-Nov-19 15:29N 29°39' W 091°22'4 3.8
2014-Nov-19 14:20N 29°40' W 091°27'3 3.0
2014-Nov-19 13:28N 29°42' W 091°30'0 0.2
2014-Nov-19 12:33N 29°42' W 091°30'2 2.3
2014-Nov-19 11:33N 29°43' W 091°32'  

Dump ship's entire track history